To NAV CANADA Home Page Login to a new session Search on AWWS site Feedback and Comments Disclaimer Vers la page française équivalente Tips FAQ What's new on the site To the Forecasts and Observations / NOTAM section To "File a Flight Plan" website Publications and other links Update of the User's profile FIC Telephone Numbers My Weather Data Folder Route Weather Data Regional Weather Data Local Weather Data To the Forecasts and Observations / NOTAM section
Request Generated 09/29/2016 at 18:36:04 UTC . Weather information available at that time is displayed.

METAR/TAF

SUDBURY/ON    

METAR CYSB 291800Z 07011KT 20SM FEW032 18/11 A3045 RMK CF2 SLP317
DENSITY ALT 1200FT=
METAR CYSB 291700Z 03011KT 20SM FEW024 17/12 A3046 RMK CF1 SLP321=
METAR CYSB 291600Z CCA 03011KT 20SM SCT012 15/12 A3047 RMK SC3
SLP326=
METAR CYSB 291600Z 03011KT 20SM 15/12 A3047 RMK SLP326=

TAF CYSB 291338Z 2914/3002 06010G20KT 3SM BR OVC003
BECMG 2914/2916 P6SM NSW SKC
RMK NXT FCST BY 292000Z=
Your time UTC time
Weather data provided by Environment Canada and NAV CANADA